Time,TemperatureF,DewpointF,PressureIn,WindDirection,WindDirectionDegrees,WindSpeedMPH,WindSpeedGustMPH,Humidity,HourlyPrecipIn,Conditions,Clouds,dailyrainin,SoftwareType,DateUTC
2013-09-12 00:02:00,71.1,70.5,29.88,NNE,22,0.0,-999.0,98,-99.99,,,0.00,Acu-Link.com,2013-09-12 04:02:00,
2013-09-12 00:18:00,71.2,70.6,29.87,SSE,157,0.0,-999.0,98,-99.99,,,0.00,Acu-Link.com,2013-09-12 04:18:00,
2013-09-12 00:33:00,70.7,70.1,29.87,SSE,157,0.0,-999.0,98,-99.99,,,0.00,Acu-Link.com,2013-09-12 04:33:00,
2013-09-12 00:48:00,70.3,69.7,29.86,SSE,157,0.0,-999.0,98,-99.99,,,0.00,Acu-Link.com,2013-09-12 04:48:00,
2013-09-12 01:04:00,70.3,69.7,29.86,North,0,0.0,-999.0,98,-99.99,,,0.00,Acu-Link.com,2013-09-12 05:04:00,
2013-09-12 01:19:00,69.8,69.2,29.86,North,0,0.0,-999.0,98,-99.99,,,0.00,Acu-Link.com,2013-09-12 05:19:00,
2013-09-12 01:34:00,69.8,69.2,29.85,North,0,0.0,-999.0,98,-99.99,,,0.00,Acu-Link.com,2013-09-12 05:34:00,
2013-09-12 01:50:00,69.6,69.0,29.85,North,0,0.0,-999.0,98,-99.99,,,0.00,Acu-Link.com,2013-09-12 05:50:00,
2013-09-12 02:05:00,69.3,68.7,29.85,East,90,0.0,-999.0,98,-99.99,,,0.00,Acu-Link.com,2013-09-12 06:05:00,
2013-09-12 02:20:00,69.3,68.7,29.84,NNW,337,0.0,-999.0,98,-99.99,,,0.00,Acu-Link.com,2013-09-12 06:20:00,
2013-09-12 02:35:00,69.3,68.7,29.84,NNW,337,0.0,-999.0,98,-99.99,,,0.00,Acu-Link.com,2013-09-12 06:35:00,
2013-09-12 02:50:00,68.9,68.3,29.84,East,90,0.0,-999.0,98,-99.99,,,0.00,Acu-Link.com,2013-09-12 06:50:00,
2013-09-12 03:06:00,68.5,67.9,29.84,West,270,0.0,-999.0,98,-99.99,,,0.00,Acu-Link.com,2013-09-12 07:06:00,
2013-09-12 03:21:00,68.4,67.8,29.84,ESE,112,0.0,-999.0,98,-99.99,,,0.00,Acu-Link.com,2013-09-12 07:21:00,
2013-09-12 03:37:00,68.4,67.8,29.84,North,0,0.0,-999.0,98,-99.99,,,0.00,Acu-Link.com,2013-09-12 07:37:00,
2013-09-12 03:52:00,68.7,68.1,29.84,East,90,0.0,-999.0,98,-99.99,,,0.00,Acu-Link.com,2013-09-12 07:52:00,
2013-09-12 04:08:00,68.4,67.8,29.84,East,90,0.0,-999.0,98,-99.99,,,0.00,Acu-Link.com,2013-09-12 08:08:00,
2013-09-12 04:23:00,68.4,67.8,29.84,East,90,1.7,-999.0,98,-99.99,,,0.00,Acu-Link.com,2013-09-12 08:23:00,
2013-09-12 04:38:00,68.7,68.1,29.83,NNW,337,0.0,-999.0,98,-99.99,,,0.00,Acu-Link.com,2013-09-12 08:38:00,
2013-09-12 04:53:00,68.9,68.3,29.83,WNW,292,0.0,-999.0,98,-99.99,,,0.00,Acu-Link.com,2013-09-12 08:53:00,
2013-09-12 05:08:00,69.1,68.5,29.83,SSW,202,0.0,-999.0,98,-99.99,,,0.00,Acu-Link.com,2013-09-12 09:08:00,
2013-09-12 05:23:00,68.9,68.3,29.83,WSW,247,0.0,-999.0,98,-99.99,,,0.00,Acu-Link.com,2013-09-12 09:23:00,
2013-09-12 05:38:00,68.9,68.3,29.83,WSW,247,0.0,-999.0,98,-99.99,,,0.00,Acu-Link.com,2013-09-12 09:38:00,
2013-09-12 05:54:00,68.7,68.1,29.82,West,270,0.0,-999.0,98,-99.99,,,0.00,Acu-Link.com,2013-09-12 09:54:00,
2013-09-12 06:09:00,68.4,67.8,29.82,ESE,112,2.2,-999.0,98,-99.99,,,0.00,Acu-Link.com,2013-09-12 10:09:00,
2013-09-12 06:24:00,68.4,67.8,29.83,WNW,292,0.0,-999.0,98,-99.99,,,0.00,Acu-Link.com,2013-09-12 10:24:00,
2013-09-12 06:40:00,68.2,67.6,29.84,WNW,292,0.0,-999.0,98,-99.99,,,0.00,Acu-Link.com,2013-09-12 10:40:00,
2013-09-12 06:55:00,68.2,67.6,29.84,WNW,292,0.0,-999.0,98,-99.99,,,0.00,Acu-Link.com,2013-09-12 10:55:00,
2013-09-12 07:10:00,68.2,67.6,29.83,East,90,1.1,-999.0,98,-99.99,,,0.00,Acu-Link.com,2013-09-12 11:10:00,
2013-09-12 07:26:00,68.4,67.8,29.84,North,0,0.0,-999.0,98,-99.99,,,0.00,Acu-Link.com,2013-09-12 11:26:00,
2013-09-12 07:41:00,68.9,68.3,29.84,NNW,337,0.0,-999.0,98,-99.99,,,0.00,Acu-Link.com,2013-09-12 11:41:00,
2013-09-12 07:56:00,69.6,69.0,29.84,NW,315,0.0,-999.0,98,-99.99,,,0.00,Acu-Link.com,2013-09-12 11:56:00,
2013-09-12 08:11:00,70.5,69.9,29.84,NW,315,0.0,-999.0,98,-99.99,,,0.00,Acu-Link.com,2013-09-12 12:11:00,
2013-09-12 08:26:00,71.8,71.2,29.84,NW,315,0.0,-999.0,98,-99.99,,,0.00,Acu-Link.com,2013-09-12 12:26:00,
2013-09-12 08:42:00,72.5,71.6,29.83,NW,315,0.0,-999.0,97,-99.99,,,0.00,Acu-Link.com,2013-09-12 12:42:00,
2013-09-12 08:57:00,74.8,73.0,29.83,NW,315,0.0,-999.0,94,-99.99,,,0.00,Acu-Link.com,2013-09-12 12:57:00,
2013-09-12 09:12:00,76.3,73.5,29.83,NW,315,0.0,-999.0,91,-99.99,,,0.00,Acu-Link.com,2013-09-12 13:12:00,
2013-09-12 09:28:00,80.8,76.2,29.83,South,180,0.0,-999.0,86,-99.99,,,0.00,Acu-Link.com,2013-09-12 13:28:00,
2013-09-12 09:43:00,84.4,76.8,29.83,West,270,0.0,-999.0,78,-99.99,,,0.00,Acu-Link.com,2013-09-12 13:43:00,
2013-09-12 09:58:00,79.0,73.0,29.83,East,90,0.0,-999.0,82,-99.99,,,0.00,Acu-Link.com,2013-09-12 13:58:00,
2013-09-12 10:14:00,79.2,73.2,29.82,West,270,1.7,-999.0,82,-99.99,,,0.00,Acu-Link.com,2013-09-12 14:14:00,
2013-09-12 10:29:00,80.8,74.4,29.82,West,270,2.2,-999.0,81,-99.99,,,0.00,Acu-Link.com,2013-09-12 14:29:00,
2013-09-12 10:44:00,83.1,75.5,29.81,ESE,112,0.0,-999.0,78,-99.99,,,0.00,Acu-Link.com,2013-09-12 14:44:00,
2013-09-12 10:59:00,85.3,76.5,29.81,NE,45,2.7,-999.0,75,-99.99,,,0.00,Acu-Link.com,2013-09-12 14:59:00,
2013-09-12 11:14:00,84.2,75.0,29.80,SSW,202,1.7,-999.0,74,-99.99,,,0.00,Acu-Link.com,2013-09-12 15:14:00,
2013-09-12 11:30:00,86.0,74.2,29.80,East,90,2.7,-999.0,68,-99.99,,,0.00,Acu-Link.com,2013-09-12 15:30:00,
2013-09-12 11:45:00,85.6,74.7,29.80,West,270,2.2,-999.0,70,-99.99,,,0.00,Acu-Link.com,2013-09-12 15:45:00,
2013-09-12 12:00:00,89.2,76.8,29.80,ENE,67,5.3,-999.0,67,-99.99,,,0.00,Acu-Link.com,2013-09-12 16:00:00,
2013-09-12 12:16:00,87.6,74.8,29.79,SW,225,2.7,-999.0,66,-99.99,,,0.00,Acu-Link.com,2013-09-12 16:16:00,
2013-09-12 12:31:00,88.5,75.2,29.79,SE,135,2.7,-999.0,65,-99.99,,,0.00,Acu-Link.com,2013-09-12 16:31:00,
2013-09-12 12:46:00,88.3,73.6,29.77,SE,135,1.7,-999.0,62,-99.99,,,0.00,Acu-Link.com,2013-09-12 16:46:00,
2013-09-12 13:01:00,88.9,73.7,29.77,West,270,3.7,-999.0,61,-99.99,,,0.00,Acu-Link.com,2013-09-12 17:01:00,
2013-09-12 13:17:00,90.0,74.7,29.76,South,180,2.2,-999.0,61,-99.99,,,0.00,Acu-Link.com,2013-09-12 17:17:00,
2013-09-12 13:32:00,89.8,75.0,29.75,West,270,3.2,-999.0,62,-99.99,,,0.00,Acu-Link.com,2013-09-12 17:32:00,
2013-09-12 13:47:00,89.1,74.3,29.75,West,270,2.2,-999.0,62,-99.99,,,0.00,Acu-Link.com,2013-09-12 17:47:00,
2013-09-12 14:02:00,92.1,74.6,29.73,ESE,112,1.7,-999.0,57,-99.99,,,0.00,Acu-Link.com,2013-09-12 18:02:00,
2013-09-12 14:17:00,86.5,74.2,29.76,West,270,4.2,-999.0,67,-99.99,,,0.00,Acu-Link.com,2013-09-12 18:17:00,
2013-09-12 14:32:00,74.7,69.9,29.78,West,270,3.7,-999.0,85,-99.99,,,0.01,Acu-Link.com,2013-09-12 18:32:00,
2013-09-12 14:47:00,70.2,67.8,29.76,SSW,202,1.7,-999.0,92,-99.99,,,0.10,Acu-Link.com,2013-09-12 18:47:00,
2013-09-12 15:03:00,70.3,68.5,29.74,West,270,1.7,-999.0,94,-99.99,,,0.39,Acu-Link.com,2013-09-12 19:03:00,
2013-09-12 15:18:00,70.0,68.8,29.72,East,90,0.0,-999.0,96,-99.99,,,0.41,Acu-Link.com,2013-09-12 19:18:00,
2013-09-12 15:33:00,70.0,69.4,29.72,West,270,2.2,-999.0,98,-99.99,,,0.41,Acu-Link.com,2013-09-12 19:33:00,
2013-09-12 15:49:00,70.9,70.3,29.71,NW,315,1.7,-999.0,98,-99.99,,,0.41,Acu-Link.com,2013-09-12 19:49:00,
2013-09-12 16:04:00,72.5,71.3,29.71,WSW,247,2.2,-999.0,96,-99.99,,,0.41,Acu-Link.com,2013-09-12 20:04:00,
2013-09-12 16:19:00,73.9,72.4,29.71,WNW,292,0.0,-999.0,95,-99.99,,,0.41,Acu-Link.com,2013-09-12 20:19:00,
2013-09-12 16:35:00,75.0,73.5,29.70,ESE,112,0.0,-999.0,95,-99.99,,,0.41,Acu-Link.com,2013-09-12 20:35:00,
2013-09-12 16:50:00,75.2,73.7,29.69,West,270,3.2,-999.0,95,-99.99,,,0.41,Acu-Link.com,2013-09-12 20:50:00,
2013-09-12 17:05:00,76.6,73.4,29.68,West,270,1.1,-999.0,90,-99.99,,,0.41,Acu-Link.com,2013-09-12 21:05:00,
2013-09-12 17:20:00,74.8,72.3,29.67,WSW,247,2.2,-999.0,92,-99.99,,,0.41,Acu-Link.com,2013-09-12 21:20:00,
2013-09-12 17:35:00,75.0,72.5,29.67,SW,225,1.7,-999.0,92,-99.99,,,0.41,Acu-Link.com,2013-09-12 21:35:00,
2013-09-12 17:51:00,76.1,72.6,29.67,West,270,2.7,-999.0,89,-99.99,,,0.41,Acu-Link.com,2013-09-12 21:51:00,
2013-09-12 18:06:00,77.7,72.8,29.67,SW,225,0.0,-999.0,85,-99.99,,,0.41,Acu-Link.com,2013-09-12 22:06:00,
2013-09-12 18:21:00,78.1,74.2,29.67,SSE,157,0.0,-999.0,88,-99.99,,,0.41,Acu-Link.com,2013-09-12 22:21:00,
2013-09-12 18:36:00,79.3,74.0,29.67,WNW,292,0.0,-999.0,84,-99.99,,,0.41,Acu-Link.com,2013-09-12 22:36:00,
2013-09-12 18:52:00,78.4,73.9,29.67,WNW,292,0.0,-999.0,86,-99.99,,,0.41,Acu-Link.com,2013-09-12 22:52:00,
2013-09-12 19:07:00,77.9,73.7,29.67,WNW,292,0.0,-999.0,87,-99.99,,,0.41,Acu-Link.com,2013-09-12 23:07:00,
2013-09-12 19:22:00,75.9,72.7,29.66,WNW,292,0.0,-999.0,90,-99.99,,,0.41,Acu-Link.com,2013-09-12 23:22:00,
2013-09-12 19:38:00,75.0,72.5,29.66,NE,45,1.7,-999.0,92,-99.99,,,0.41,Acu-Link.com,2013-09-12 23:38:00,
2013-09-12 19:53:00,74.8,72.6,29.66,NE,45,0.0,-999.0,93,-99.99,,,0.41,Acu-Link.com,2013-09-12 23:53:00,
2013-09-12 20:08:00,73.9,72.4,29.67,NE,45,0.0,-999.0,95,-99.99,,,0.41,Acu-Link.com,2013-09-13 00:08:00,
2013-09-12 20:23:00,73.2,71.7,29.66,NE,45,0.0,-999.0,95,-99.99,,,0.41,Acu-Link.com,2013-09-13 00:23:00,
2013-09-12 20:38:00,72.9,71.7,29.66,NE,45,0.0,-999.0,96,-99.99,,,0.41,Acu-Link.com,2013-09-13 00:38:00,
2013-09-12 20:54:00,72.5,71.6,29.68,NE,45,0.0,-999.0,97,-99.99,,,0.41,Acu-Link.com,2013-09-13 00:54:00,
2013-09-12 21:09:00,72.1,71.5,29.69,NE,45,0.0,-999.0,98,-99.99,,,0.41,Acu-Link.com,2013-09-13 01:09:00,
2013-09-12 21:24:00,72.0,71.4,29.69,NNW,337,0.0,-999.0,98,-99.99,,,0.41,Acu-Link.com,2013-09-13 01:24:00,
2013-09-12 21:39:00,72.0,71.4,29.68,ESE,112,0.0,-999.0,98,-99.99,,,0.41,Acu-Link.com,2013-09-13 01:39:00,
2013-09-12 21:55:00,71.8,71.2,29.68,NNW,337,0.0,-999.0,98,-99.99,,,0.41,Acu-Link.com,2013-09-13 01:55:00,
2013-09-12 22:10:00,71.6,71.0,29.69,NW,315,0.0,-999.0,98,-99.99,,,0.41,Acu-Link.com,2013-09-13 02:10:00,
2013-09-12 22:25:00,71.8,71.2,29.68,ESE,112,0.0,-999.0,98,-99.99,,,0.41,Acu-Link.com,2013-09-13 02:25:00,
2013-09-12 22:40:00,71.4,70.8,29.68,East,90,2.7,-999.0,98,-99.99,,,0.41,Acu-Link.com,2013-09-13 02:40:00,
2013-09-12 22:56:00,71.4,70.8,29.68,South,180,0.0,-999.0,98,-99.99,,,0.41,Acu-Link.com,2013-09-13 02:56:00,
2013-09-12 23:11:00,71.2,70.6,29.67,East,90,2.2,-999.0,98,-99.99,,,0.41,Acu-Link.com,2013-09-13 03:11:00,
2013-09-12 23:26:00,71.4,70.8,29.67,NNE,22,0.0,-999.0,98,-99.99,,,0.41,Acu-Link.com,2013-09-13 03:26:00,
2013-09-12 23:41:00,71.4,70.8,29.66,East,90,2.2,-999.0,98,-99.99,,,0.41,Acu-Link.com,2013-09-13 03:41:00,
2013-09-12 23:57:00,71.2,70.6,29.66,NW,315,0.0,-999.0,98,-99.99,,,0.41,Acu-Link.com,2013-09-13 03:57:00,